createdAt,value
2023-01-29T00:00:33.189Z,1.28
2023-01-29T00:03:35.697Z,1.28
2023-01-29T00:06:36.998Z,1.49
2023-01-29T00:09:38.599Z,1.50
2023-01-29T00:12:40.068Z,1.40
2023-01-29T00:15:41.483Z,1.34
2023-01-29T00:18:43.760Z,1.35
2023-01-29T00:21:45.687Z,1.31
2023-01-29T00:24:47.099Z,1.25
2023-01-29T00:27:48.562Z,1.29
2023-01-29T00:30:50.027Z,1.51
2023-01-29T00:33:51.875Z,1.59
2023-01-29T00:37:04.931Z,1.47
2023-01-29T00:40:07.002Z,1.47
2023-01-29T00:43:27.106Z,1.29
2023-01-29T00:46:28.610Z,1.37
2023-01-29T00:49:38.144Z,1.49
2023-01-29T00:52:43.120Z,1.34
2023-01-29T00:55:44.953Z,1.49
2023-01-29T00:58:46.348Z,1.44
2023-01-29T01:02:06.508Z,1.30
2023-01-29T01:05:19.221Z,1.37
2023-01-29T01:08:39.349Z,1.38
2023-01-29T01:11:40.794Z,1.23
2023-01-29T01:14:43.175Z,1.20
2023-01-29T01:17:44.593Z,1.43
2023-01-29T01:20:51.431Z,1.21
2023-01-29T01:23:53.599Z,1.16
2023-01-29T01:26:55.066Z,1.09
2023-01-29T01:29:56.575Z,1.03
2023-01-29T01:32:58.063Z,1.19
2023-01-29T01:36:02.080Z,1.11
2023-01-29T01:39:33.644Z,1.15
2023-01-29T01:42:35.028Z,1.13
2023-01-29T01:45:38.016Z,1.21
2023-01-29T01:48:40.137Z,1.21
2023-01-29T01:51:47.919Z,1.02
2023-01-29T01:54:51.467Z,0.69
2023-01-29T01:57:59.324Z,0.98
2023-01-29T02:01:01.330Z,1.06
2023-01-29T02:04:25.873Z,0.91
2023-01-29T02:07:45.974Z,0.86
2023-01-29T02:10:48.764Z,1.01
2023-01-29T02:13:53.527Z,1.06
2023-01-29T02:17:01.359Z,0.95
2023-01-29T02:20:17.639Z,0.99
2023-01-29T02:23:31.528Z,0.97
2023-01-29T02:27:13.986Z,0.81
2023-01-29T02:30:44.909Z,0.98
2023-01-29T02:33:52.438Z,1.00
2023-01-29T02:37:11.923Z,1.11
2023-01-29T02:40:31.588Z,1.14
2023-01-29T02:43:55.243Z,1.09
2023-01-29T02:47:12.541Z,1.05
2023-01-29T02:50:34.366Z,1.03
2023-01-29T02:53:41.239Z,0.96
2023-01-29T02:56:56.859Z,0.82
2023-01-29T03:00:04.325Z,0.63
2023-01-29T03:03:16.019Z,0.75
2023-01-29T03:06:26.186Z,0.65
2023-01-29T03:09:41.729Z,0.92
2023-01-29T03:12:46.820Z,0.77
2023-01-29T03:16:01.354Z,1.06
2023-01-29T03:19:20.297Z,0.96
2023-01-29T03:22:23.585Z,1.00
2023-01-29T03:25:46.230Z,0.72
2023-01-29T03:29:07.474Z,0.78
2023-01-29T03:32:11.873Z,1.00
2023-01-29T03:35:20.927Z,1.00
2023-01-29T03:38:22.740Z,0.90
2023-01-29T03:41:38.328Z,0.94
2023-01-29T03:44:50.573Z,0.91
2023-01-29T03:48:03.669Z,1.05
2023-01-29T03:51:11.912Z,1.04
2023-01-29T03:54:39.275Z,0.94
2023-01-29T03:57:47.382Z,0.73
2023-01-29T04:01:02.730Z,0.91
2023-01-29T04:04:27.580Z,0.97
2023-01-29T04:07:33.411Z,0.91
2023-01-29T04:10:41.361Z,0.93
2023-01-29T04:13:43.658Z,0.94
2023-01-29T04:16:51.454Z,0.89
2023-01-29T04:20:11.249Z,0.98
2023-01-29T04:23:23.545Z,0.95
2023-01-29T04:26:28.375Z,1.11
2023-01-29T04:29:45.723Z,1.03
2023-01-29T04:32:59.755Z,0.90
2023-01-29T04:36:16.275Z,0.99
2023-01-29T04:39:27.206Z,0.95
2023-01-29T04:42:34.018Z,0.95
2023-01-29T04:45:54.152Z,0.89
2023-01-29T04:49:05.232Z,0.84
2023-01-29T04:52:20.224Z,0.73
2023-01-29T04:55:32.315Z,0.93
2023-01-29T04:58:44.473Z,0.98
2023-01-29T05:01:47.505Z,1.02
2023-01-29T05:04:50.001Z,1.00
2023-01-29T05:07:52.746Z,0.98
2023-01-29T05:10:57.056Z,0.85
2023-01-29T05:14:02.169Z,0.72
2023-01-29T05:17:09.599Z,0.64
2023-01-29T05:20:12.027Z,0.45
2023-01-29T05:23:22.189Z,0.39
2023-01-29T05:26:42.906Z,0.44
2023-01-29T05:29:46.771Z,0.14
2023-01-29T05:32:48.342Z,0.23
2023-01-29T05:35:50.521Z,0.14
2023-01-29T05:38:52.058Z,0.40
2023-01-29T05:41:53.501Z,0.35
2023-01-29T05:44:55.003Z,0.46
2023-01-29T05:47:57.867Z,0.28
2023-01-29T05:51:03.898Z,0.30
2023-01-29T05:54:05.516Z,0.47
2023-01-29T05:57:06.892Z,0.58
2023-01-29T06:00:09.249Z,0.34
2023-01-29T06:03:13.695Z,-0.13
2023-01-29T06:06:15.473Z,-0.03
2023-01-29T06:09:16.885Z,0.28
2023-01-29T06:12:18.304Z,0.19
2023-01-29T06:15:19.770Z,0.21
2023-01-29T06:18:21.235Z,0.09
2023-01-29T06:21:22.614Z,0.36
2023-01-29T06:24:24.083Z,0.06
2023-01-29T06:27:25.654Z,0.11
2023-01-29T06:30:28.339Z,0.26
2023-01-29T06:33:29.769Z,0.43
2023-01-29T06:36:31.205Z,0.15
2023-01-29T06:39:32.617Z,-0.05
2023-01-29T06:42:37.180Z,0.05
2023-01-29T06:45:38.683Z,0.16
2023-01-29T06:48:40.111Z,0.09
2023-01-29T06:51:41.590Z,0.12
2023-01-29T06:54:43.027Z,0.37
2023-01-29T06:57:44.452Z,0.59
2023-01-29T07:00:46.080Z,0.22
2023-01-29T07:03:51.282Z,0.21
2023-01-29T07:06:52.669Z,0.20
2023-01-29T07:09:54.086Z,0.23
2023-01-29T07:12:55.574Z,0.34
2023-01-29T07:16:01.891Z,0.18
2023-01-29T07:19:03.516Z,0.34
2023-01-29T07:22:05.673Z,0.52
2023-01-29T07:25:07.926Z,0.29
2023-01-29T07:28:09.437Z,0.08
2023-01-29T07:31:13.216Z,0.26
2023-01-29T07:34:14.733Z,0.39
2023-01-29T07:37:16.125Z,0.14
2023-01-29T07:40:17.873Z,0.16
2023-01-29T07:43:19.494Z,0.38
2023-01-29T07:46:20.911Z,0.44
2023-01-29T07:49:22.298Z,0.50
2023-01-29T07:52:23.729Z,0.33
2023-01-29T07:55:25.663Z,0.51
2023-01-29T07:58:27.082Z,0.85
2023-01-29T08:01:28.817Z,0.15
2023-01-29T08:04:30.268Z,-0.01
2023-01-29T08:07:31.740Z,0.22
2023-01-29T08:10:33.662Z,0.20
2023-01-29T08:13:35.163Z,0.17
2023-01-29T08:16:36.693Z,0.36
2023-01-29T08:19:38.156Z,0.65
2023-01-29T08:22:39.563Z,0.58
2023-01-29T08:25:41.390Z,0.80
2023-01-29T08:28:42.817Z,0.73
2023-01-29T08:31:44.245Z,0.73
2023-01-29T08:34:45.724Z,0.69
2023-01-29T08:38:01.264Z,0.77
2023-01-29T08:41:02.839Z,0.63
2023-01-29T08:44:04.700Z,0.98
2023-01-29T08:47:06.096Z,0.82
2023-01-29T08:50:08.167Z,0.84
2023-01-29T08:53:10.159Z,0.64
2023-01-29T08:56:11.663Z,0.64
2023-01-29T08:59:13.227Z,0.66
2023-01-29T09:02:14.685Z,0.64
2023-01-29T09:05:16.530Z,0.77
2023-01-29T09:08:18.076Z,0.92
2023-01-29T09:11:19.535Z,0.98
2023-01-29T09:14:21.083Z,1.16
2023-01-29T09:17:22.598Z,1.25
2023-01-29T09:20:24.043Z,1.34
2023-01-29T09:23:25.534Z,1.36
2023-01-29T09:26:27.012Z,1.57
2023-01-29T09:29:28.460Z,1.39
2023-01-29T09:35:54.167Z,1.80
2023-01-29T09:38:55.675Z,1.36
2023-01-29T09:42:13.875Z,1.57
2023-01-29T09:45:24.507Z,1.54
2023-01-29T09:48:30.173Z,1.38
2023-01-29T09:51:37.404Z,1.43
2023-01-29T09:54:59.584Z,1.28
2023-01-29T09:58:10.514Z,1.41
2023-01-29T10:01:46.844Z,1.42
2023-01-29T10:05:15.369Z,1.62
2023-01-29T10:08:29.455Z,1.86
2023-01-29T10:11:45.880Z,2.12
2023-01-29T10:14:53.197Z,2.22
2023-01-29T10:18:06.325Z,2.41
2023-01-29T10:21:29.654Z,2.23
2023-01-29T10:24:46.192Z,2.45
2023-01-29T10:27:53.964Z,2.74
2023-01-29T10:31:00.186Z,3.05
2023-01-29T10:34:27.686Z,2.82
2023-01-29T10:37:40.360Z,2.41
2023-01-29T10:40:50.610Z,2.71
2023-01-29T10:44:29.192Z,2.43
2023-01-29T10:47:50.743Z,2.53
2023-01-29T10:51:01.603Z,2.39
2023-01-29T10:54:09.124Z,2.35
2023-01-29T10:57:38.987Z,2.52
2023-01-29T11:00:41.664Z,2.44
2023-01-29T11:03:43.453Z,2.28
2023-01-29T11:06:45.411Z,2.54
2023-01-29T11:09:54.598Z,2.88
2023-01-29T11:12:57.169Z,2.82
2023-01-29T11:15:58.619Z,2.62
2023-01-29T11:19:01.719Z,2.14
2023-01-29T11:22:04.383Z,2.18
2023-01-29T11:25:18.508Z,2.41
2023-01-29T11:28:45.500Z,2.53
2023-01-29T11:31:47.355Z,2.67
2023-01-29T11:35:03.381Z,2.73
2023-01-29T11:38:16.968Z,2.73
2023-01-29T11:41:22.174Z,3.24
2023-01-29T11:44:28.524Z,3.16
2023-01-29T11:47:30.679Z,2.82
2023-01-29T11:50:33.631Z,2.57
2023-01-29T11:53:49.480Z,2.89
2023-01-29T11:56:51.829Z,2.97
2023-01-29T11:59:54.950Z,2.94
2023-01-29T12:02:59.654Z,3.37
2023-01-29T12:06:05.943Z,3.25
2023-01-29T12:09:16.869Z,2.87
2023-01-29T12:12:29.837Z,2.98
2023-01-29T12:15:31.320Z,2.94
2023-01-29T12:18:39.908Z,2.92
2023-01-29T12:22:20.525Z,3.25
2023-01-29T12:25:42.700Z,3.29
2023-01-29T12:29:22.009Z,3.39
2023-01-29T12:32:38.982Z,3.36
2023-01-29T12:36:31.454Z,3.77
2023-01-29T12:39:32.922Z,4.06
2023-01-29T12:42:36.764Z,4.09
2023-01-29T12:45:38.999Z,3.85
2023-01-29T12:48:43.604Z,4.14
2023-01-29T12:51:59.870Z,4.15
2023-01-29T12:55:11.132Z,3.94
2023-01-29T12:58:16.759Z,4.21
2023-01-29T13:01:28.909Z,4.15
2023-01-29T13:04:39.254Z,3.95
2023-01-29T13:07:47.290Z,3.77
2023-01-29T13:10:52.639Z,3.32
2023-01-29T13:14:06.723Z,3.35
2023-01-29T13:17:24.301Z,3.30
2023-01-29T13:20:30.498Z,3.16
2023-01-29T13:23:37.416Z,3.33
2023-01-29T13:26:40.596Z,3.28
2023-01-29T13:29:43.809Z,3.37
2023-01-29T13:32:54.172Z,3.43
2023-01-29T13:35:59.763Z,3.37
2023-01-29T13:39:07.503Z,3.33
2023-01-29T13:42:26.418Z,3.37
2023-01-29T13:45:27.853Z,3.41
2023-01-29T13:48:32.461Z,3.70
2023-01-29T13:51:36.595Z,3.54
2023-01-29T13:54:38.034Z,3.40
2023-01-29T13:57:39.448Z,3.29
2023-01-29T14:00:40.780Z,3.13
2023-01-29T14:04:04.059Z,3.29
2023-01-29T14:07:40.059Z,3.19
2023-01-29T14:10:43.071Z,3.39
2023-01-29T14:13:46.701Z,3.24
2023-01-29T14:16:49.862Z,3.28
2023-01-29T14:19:54.661Z,3.45
2023-01-29T14:22:59.488Z,3.52
2023-01-29T14:26:05.136Z,3.30
2023-01-29T14:29:14.494Z,3.27
2023-01-29T14:32:24.864Z,3.10
2023-01-29T14:35:30.539Z,3.23
2023-01-29T14:38:33.400Z,3.51
2023-01-29T14:41:36.120Z,3.48
2023-01-29T14:45:06.511Z,3.27
2023-01-29T14:48:11.032Z,3.27
2023-01-29T14:51:17.821Z,3.07
2023-01-29T14:54:28.149Z,3.32
2023-01-29T14:57:30.612Z,3.43
2023-01-29T15:00:37.140Z,3.35
2023-01-29T15:03:49.697Z,3.15
2023-01-29T15:07:14.658Z,3.46
2023-01-29T15:10:25.085Z,3.37
2023-01-29T15:13:37.893Z,3.07
2023-01-29T15:17:13.532Z,2.91
2023-01-29T15:20:34.609Z,2.89
2023-01-29T15:23:36.016Z,2.85
2023-01-29T15:26:37.483Z,2.90
2023-01-29T15:29:39.847Z,2.88
2023-01-29T15:32:41.298Z,2.88
2023-01-29T15:35:43.303Z,2.80
2023-01-29T15:38:44.766Z,2.73
2023-01-29T15:41:46.380Z,2.72
2023-01-29T15:44:48.008Z,2.60
2023-01-29T15:47:50.213Z,2.62
2023-01-29T15:50:54.687Z,2.58
2023-01-29T15:54:04.282Z,2.48
2023-01-29T15:57:06.185Z,2.44
2023-01-29T16:00:20.192Z,2.44
2023-01-29T16:03:28.157Z,2.28
2023-01-29T16:06:38.898Z,2.41
2023-01-29T16:09:40.476Z,2.39
2023-01-29T16:12:42.612Z,2.26
2023-01-29T16:15:56.048Z,2.06
2023-01-29T16:19:00.785Z,1.88
2023-01-29T16:22:05.750Z,1.69
2023-01-29T16:25:14.077Z,1.71
2023-01-29T16:28:17.045Z,1.69
2023-01-29T16:31:27.111Z,1.71
2023-01-29T16:34:43.463Z,1.52
2023-01-29T16:37:50.643Z,1.40
2023-01-29T16:41:28.251Z,1.24
2023-01-29T16:44:36.179Z,1.30
2023-01-29T16:47:41.345Z,1.26
2023-01-29T16:50:54.292Z,1.07
2023-01-29T16:54:11.119Z,0.99
2023-01-29T16:57:21.449Z,1.00
2023-01-29T17:00:28.553Z,1.10
2023-01-29T17:03:33.214Z,1.03
2023-01-29T17:06:35.074Z,1.14
2023-01-29T17:09:37.661Z,0.85
2023-01-29T17:12:39.217Z,0.79
2023-01-29T17:15:47.067Z,0.65
2023-01-29T17:18:48.564Z,0.58
2023-01-29T17:21:49.953Z,0.44
2023-01-29T17:24:51.552Z,0.44
2023-01-29T17:27:53.331Z,0.53
2023-01-29T17:31:05.872Z,0.82
2023-01-29T17:34:15.853Z,0.58
2023-01-29T17:37:17.275Z,0.52
2023-01-29T17:40:33.195Z,0.52
2023-01-29T17:43:34.766Z,0.37
2023-01-29T17:46:36.550Z,0.36
2023-01-29T17:49:37.984Z,0.25
2023-01-29T17:52:39.393Z,0.21
2023-01-29T17:55:40.827Z,0.25
2023-01-29T17:58:42.629Z,0.35
2023-01-29T18:01:45.565Z,0.26
2023-01-29T18:04:50.826Z,0.28
2023-01-29T18:07:54.681Z,0.22
2023-01-29T18:10:56.489Z,0.26
2023-01-29T18:13:58.425Z,0.21
2023-01-29T18:17:02.679Z,0.17
2023-01-29T18:20:13.011Z,0.32
2023-01-29T18:23:15.431Z,0.13
2023-01-29T18:26:17.181Z,0.09
2023-01-29T18:29:18.731Z,0.19
2023-01-29T18:32:20.193Z,0.24
2023-01-29T18:35:22.010Z,0.15
2023-01-29T18:38:23.988Z,0.14
2023-01-29T18:41:25.596Z,0.14
2023-01-29T18:44:29.544Z,0.18
2023-01-29T18:47:31.105Z,0.16
2023-01-29T18:50:33.111Z,0.08
2023-01-29T18:53:34.529Z,0.03
2023-01-29T18:56:35.917Z,0.21
2023-01-29T18:59:37.336Z,0.15
2023-01-29T19:02:38.991Z,0.27
2023-01-29T19:05:40.482Z,0.32
2023-01-29T19:08:42.875Z,0.11
2023-01-29T19:11:44.195Z,0.16
2023-01-29T19:14:45.700Z,0.19
2023-01-29T19:17:47.151Z,0.34
2023-01-29T19:20:49.962Z,0.54
2023-01-29T19:23:51.492Z,0.32
2023-01-29T19:26:53.389Z,0.39
2023-01-29T19:29:55.876Z,0.28
2023-01-29T19:32:57.420Z,0.09
2023-01-29T19:35:59.597Z,0.03
2023-01-29T19:39:00.994Z,0.14
2023-01-29T19:42:02.439Z,0.02
2023-01-29T19:45:05.422Z,0.11
2023-01-29T19:48:06.904Z,0.13
2023-01-29T19:51:10.627Z,0.23
2023-01-29T19:54:12.070Z,0.18
2023-01-29T19:57:13.501Z,0.21
2023-01-29T20:00:15.425Z,-0.08
2023-01-29T20:03:17.027Z,-0.08
2023-01-29T20:06:22.775Z,-0.12
2023-01-29T20:09:24.229Z,-0.17
2023-01-29T20:12:27.389Z,-0.17
2023-01-29T20:15:28.869Z,-0.08
2023-01-29T20:18:30.558Z,-0.20
2023-01-29T20:21:31.991Z,-0.11
2023-01-29T20:24:38.900Z,0.07
2023-01-29T20:27:40.328Z,0.08
2023-01-29T20:30:43.795Z,-0.31
2023-01-29T20:33:45.279Z,-0.48
2023-01-29T20:36:47.684Z,-0.41
2023-01-29T20:39:49.075Z,-0.40
2023-01-29T20:42:51.165Z,-0.33
2023-01-29T20:45:57.185Z,-0.46
2023-01-29T20:48:58.646Z,-0.38
2023-01-29T20:52:00.135Z,-0.33
2023-01-29T20:55:02.423Z,-0.31
2023-01-29T20:58:06.569Z,-0.37
2023-01-29T21:01:16.160Z,-0.17
2023-01-29T21:04:17.594Z,-0.29
2023-01-29T21:07:18.976Z,-0.37
2023-01-29T21:10:23.492Z,-0.29
2023-01-29T21:13:25.018Z,-0.16
2023-01-29T21:16:26.849Z,-0.28
2023-01-29T21:19:31.564Z,-0.33
2023-01-29T21:22:33.310Z,-0.21
2023-01-29T21:25:34.979Z,-0.30
2023-01-29T21:28:36.559Z,-0.23
2023-01-29T21:31:38.059Z,-0.34
2023-01-29T21:34:39.893Z,-0.25
2023-01-29T21:37:41.584Z,-0.49
2023-01-29T21:40:42.955Z,-0.51
2023-01-29T21:43:47.737Z,-0.58
2023-01-29T21:46:49.154Z,-0.61
2023-01-29T21:49:50.594Z,-0.74
2023-01-29T21:52:54.395Z,-0.78
2023-01-29T21:56:03.238Z,-0.62
2023-01-29T21:59:04.914Z,-0.45
2023-01-29T22:02:16.874Z,-0.72
2023-01-29T22:05:20.136Z,-0.63
2023-01-29T22:08:21.938Z,-0.67
2023-01-29T22:11:23.391Z,-0.64
2023-01-29T22:14:24.831Z,-0.56
2023-01-29T22:17:26.353Z,-0.39
2023-01-29T22:20:30.550Z,-0.56
2023-01-29T22:23:32.606Z,-0.50
2023-01-29T22:26:34.748Z,-0.52
2023-01-29T22:29:39.203Z,-0.57
2023-01-29T22:32:40.653Z,-0.74
2023-01-29T22:35:42.133Z,-0.99
2023-01-29T22:38:43.539Z,-1.07
2023-01-29T22:41:45.029Z,-0.98
2023-01-29T22:44:47.912Z,-0.87
2023-01-29T22:47:49.342Z,-0.95
2023-01-29T22:51:10.481Z,-0.91
2023-01-29T22:54:12.140Z,-1.17
2023-01-29T22:57:14.999Z,-1.15
2023-01-29T23:00:17.383Z,-1.11
2023-01-29T23:03:19.103Z,-1.02
2023-01-29T23:06:23.819Z,-0.88
2023-01-29T23:09:25.375Z,-1.04
2023-01-29T23:12:26.791Z,-1.09
2023-01-29T23:15:28.200Z,-1.08
2023-01-29T23:18:29.646Z,-1.02
2023-01-29T23:21:31.069Z,-1.00
2023-01-29T23:24:32.699Z,-1.06
2023-01-29T23:27:34.133Z,-1.22
2023-01-29T23:30:35.610Z,-1.00
2023-01-29T23:33:37.693Z,-0.92
2023-01-29T23:36:39.081Z,-1.04
2023-01-29T23:39:40.492Z,-0.89
2023-01-29T23:42:41.861Z,-0.97
2023-01-29T23:45:43.268Z,-0.89
2023-01-29T23:48:44.664Z,-0.85
2023-01-29T23:51:50.822Z,-0.88
2023-01-29T23:54:52.205Z,-0.79
2023-01-29T23:57:53.843Z,-0.64
